sensor_id;sensor_type;location;lat;lon;timestamp;pressure;altitude;pressure_sealevel;temperature;humidity
72308;BME280;60257;42.638;23.376;2023-03-29T00:00:11;94955.59;;;-0.97;62.13
72308;BME280;60257;42.638;23.376;2023-03-29T00:02:42;94966.63;;;-0.99;62.26
72308;BME280;60257;42.638;23.376;2023-03-29T00:05:13;94945.34;;;-1.05;62.36
72308;BME280;60257;42.638;23.376;2023-03-29T00:07:39;94951.53;;;-1.00;62.26
72308;BME280;60257;42.638;23.376;2023-03-29T00:10:06;94952.63;;;-0.91;61.42
72308;BME280;60257;42.638;23.376;2023-03-29T00:12:35;94954.53;;;-0.86;61.12
72308;BME280;60257;42.638;23.376;2023-03-29T00:15:02;94951.03;;;-0.97;61.91
72308;BME280;60257;42.638;23.376;2023-03-29T00:17:28;94945.91;;;-1.03;61.66
72308;BME280;60257;42.638;23.376;2023-03-29T00:19:53;94949.41;;;-0.93;61.63
72308;BME280;60257;42.638;23.376;2023-03-29T00:22:19;94943.75;;;-0.91;61.73
72308;BME280;60257;42.638;23.376;2023-03-29T00:24:46;94946.72;;;-1.03;61.41
72308;BME280;60257;42.638;23.376;2023-03-29T00:27:14;94945.66;;;-1.02;61.05
72308;BME280;60257;42.638;23.376;2023-03-29T00:29:40;94935.16;;;-0.93;60.89
72308;BME280;60257;42.638;23.376;2023-03-29T00:32:06;94951.31;;;-0.93;60.49
72308;BME280;60257;42.638;23.376;2023-03-29T00:34:32;94963.69;;;-1.02;60.71
72308;BME280;60257;42.638;23.376;2023-03-29T00:37:01;94938.34;;;-1.06;60.22
72308;BME280;60257;42.638;23.376;2023-03-29T00:39:27;94938.63;;;-1.13;59.89
72308;BME280;60257;42.638;23.376;2023-03-29T00:41:53;94937.53;;;-1.07;59.77
72308;BME280;60257;42.638;23.376;2023-03-29T00:47:21;94943.47;;;-1.10;59.73
72308;BME280;60257;42.638;23.376;2023-03-29T00:49:50;94947.75;;;-1.14;59.70
72308;BME280;60257;42.638;23.376;2023-03-29T00:52:18;94942.94;;;-1.12;59.76
72308;BME280;60257;42.638;23.376;2023-03-29T00:54:53;94951.56;;;-1.10;59.49
72308;BME280;60257;42.638;23.376;2023-03-29T00:57:21;94934.84;;;-1.12;59.33
72308;BME280;60257;42.638;23.376;2023-03-29T00:59:50;94936.47;;;-1.11;59.07
72308;BME280;60257;42.638;23.376;2023-03-29T01:02:20;94935.94;;;-1.08;58.89
72308;BME280;60257;42.638;23.376;2023-03-29T01:04:52;94947.50;;;-1.12;59.46
72308;BME280;60257;42.638;23.376;2023-03-29T01:07:31;94942.41;;;-1.09;59.09
72308;BME280;60257;42.638;23.376;2023-03-29T01:10:23;94957.75;;;-0.99;58.73
72308;BME280;60257;42.638;23.376;2023-03-29T01:12:55;94926.25;;;-1.14;59.21
72308;BME280;60257;42.638;23.376;2023-03-29T01:15:25;94948.31;;;-1.17;59.62
72308;BME280;60257;42.638;23.376;2023-03-29T01:17:52;94963.13;;;-1.09;59.67
72308;BME280;60257;42.638;23.376;2023-03-29T01:26:51;94967.44;;;-1.08;59.35
72308;BME280;60257;42.638;23.376;2023-03-29T01:31:59;94950.75;;;-1.00;59.18
72308;BME280;60257;42.638;23.376;2023-03-29T01:37:32;94961.22;;;-1.14;59.64
72308;BME280;60257;42.638;23.376;2023-03-29T01:40:00;94953.41;;;-1.16;59.58
72308;BME280;60257;42.638;23.376;2023-03-29T01:42:49;94951.28;;;-1.13;59.27
72308;BME280;60257;42.638;23.376;2023-03-29T01:48:10;94952.63;;;-1.06;59.00
72308;BME280;60257;42.638;23.376;2023-03-29T01:50:45;94955.56;;;-1.23;59.43
72308;BME280;60257;42.638;23.376;2023-03-29T01:55:53;94948.59;;;-1.19;59.32
72308;BME280;60257;42.638;23.376;2023-03-29T01:58:23;94962.28;;;-1.20;59.15
72308;BME280;60257;42.638;23.376;2023-03-29T02:00:52;94972.53;;;-1.17;59.44
72308;BME280;60257;42.638;23.376;2023-03-29T02:03:22;94952.88;;;-1.18;59.14
72308;BME280;60257;42.638;23.376;2023-03-29T02:05:49;94954.78;;;-1.13;58.64
72308;BME280;60257;42.638;23.376;2023-03-29T02:08:17;94953.69;;;-1.12;58.45
72308;BME280;60257;42.638;23.376;2023-03-29T02:10:43;94961.78;;;-1.17;58.75
72308;BME280;60257;42.638;23.376;2023-03-29T02:13:10;94963.09;;;-1.20;58.75
72308;BME280;60257;42.638;23.376;2023-03-29T02:15:36;94945.84;;;-1.29;59.01
72308;BME280;60257;42.638;23.376;2023-03-29T02:18:01;94973.06;;;-1.20;58.39
72308;BME280;60257;42.638;23.376;2023-03-29T02:20:34;94967.13;;;-1.22;58.85
72308;BME280;60257;42.638;23.376;2023-03-29T02:23:27;94974.94;;;-1.21;58.03
72308;BME280;60257;42.638;23.376;2023-03-29T02:25:59;94990.56;;;-1.18;58.34
72308;BME280;60257;42.638;23.376;2023-03-29T02:28:27;94969.03;;;-1.12;57.84
72308;BME280;60257;42.638;23.376;2023-03-29T02:31:01;94948.81;;;-1.30;57.33
72308;BME280;60257;42.638;23.376;2023-03-29T02:33:42;94964.44;;;-1.22;57.75
72308;BME280;60257;42.638;23.376;2023-03-29T02:36:20;94978.19;;;-1.13;57.51
72308;BME280;60257;42.638;23.376;2023-03-29T02:38:48;94974.13;;;-1.16;57.49
72308;BME280;60257;42.638;23.376;2023-03-29T02:41:14;94981.13;;;-1.20;57.73
72308;BME280;60257;42.638;23.376;2023-03-29T02:43:43;94975.75;;;-1.20;57.53
72308;BME280;60257;42.638;23.376;2023-03-29T02:46:11;94960.66;;;-1.31;57.35
72308;BME280;60257;42.638;23.376;2023-03-29T02:48:37;94980.63;;;-1.12;57.14
72308;BME280;60257;42.638;23.376;2023-03-29T02:51:09;94978.97;;;-1.23;57.30
72308;BME280;60257;42.638;23.376;2023-03-29T02:53:42;94983.28;;;-1.27;57.51
72308;BME280;60257;42.638;23.376;2023-03-29T02:56:10;94992.41;;;-1.23;57.67
72308;BME280;60257;42.638;23.376;2023-03-29T02:58:35;94977.34;;;-1.34;58.27
72308;BME280;60257;42.638;23.376;2023-03-29T03:01:02;94984.88;;;-1.26;57.92
72308;BME280;60257;42.638;23.376;2023-03-29T03:03:30;94987.03;;;-1.28;58.02
72308;BME280;60257;42.638;23.376;2023-03-29T03:05:56;94980.03;;;-1.29;58.41
72308;BME280;60257;42.638;23.376;2023-03-29T03:08:22;94989.97;;;-1.30;58.31
72308;BME280;60257;42.638;23.376;2023-03-29T03:10:47;94991.84;;;-1.30;58.62
72308;BME280;60257;42.638;23.376;2023-03-29T03:13:13;94992.41;;;-1.23;58.90
72308;BME280;60257;42.638;23.376;2023-03-29T03:15:38;94994.84;;;-1.32;58.88
72308;BME280;60257;42.638;23.376;2023-03-29T03:18:07;94978.41;;;-1.40;59.95
72308;BME280;60257;42.638;23.376;2023-03-29T03:20:34;94990.75;;;-1.44;59.76
72308;BME280;60257;42.638;23.376;2023-03-29T03:23:00;94992.88;;;-1.46;59.87
72308;BME280;60257;42.638;23.376;2023-03-29T03:25:28;95001.00;;;-1.41;60.03
72308;BME280;60257;42.638;23.376;2023-03-29T03:27:53;94986.69;;;-1.52;59.67
72308;BME280;60257;42.638;23.376;2023-03-29T03:30:19;95002.31;;;-1.39;59.39
72308;BME280;60257;42.638;23.376;2023-03-29T03:32:45;94995.59;;;-1.41;59.84
72308;BME280;60257;42.638;23.376;2023-03-29T03:35:11;95000.19;;;-1.37;59.67
72308;BME280;60257;42.638;23.376;2023-03-29T03:37:37;95013.88;;;-1.48;59.02
72308;BME280;60257;42.638;23.376;2023-03-29T03:40:04;95013.06;;;-1.39;59.41
72308;BME280;60257;42.638;23.376;2023-03-29T03:42:31;95021.94;;;-1.43;58.91
72308;BME280;60257;42.638;23.376;2023-03-29T03:44:57;95002.06;;;-1.42;58.55
72308;BME280;60257;42.638;23.376;2023-03-29T03:47:23;95006.38;;;-1.36;58.30
72308;BME280;60257;42.638;23.376;2023-03-29T03:49:49;95033.53;;;-1.38;57.46
72308;BME280;60257;42.638;23.376;2023-03-29T03:52:16;94984.81;;;-1.51;57.14
72308;BME280;60257;42.638;23.376;2023-03-29T03:54:41;95009.03;;;-1.46;57.15
72308;BME280;60257;42.638;23.376;2023-03-29T03:57:08;95028.16;;;-1.38;57.06
72308;BME280;60257;42.638;23.376;2023-03-29T03:59:33;95027.34;;;-1.38;56.72
72308;BME280;60257;42.638;23.376;2023-03-29T04:01:59;95040.28;;;-1.35;56.25
72308;BME280;60257;42.638;23.376;2023-03-29T04:04:25;95039.72;;;-1.37;56.73
72308;BME280;60257;42.638;23.376;2023-03-29T04:06:51;95034.38;;;-1.32;56.18
72308;BME280;60257;42.638;23.376;2023-03-29T04:09:17;95047.03;;;-1.33;56.27
72308;BME280;60257;42.638;23.376;2023-03-29T04:11:42;95051.03;;;-1.30;56.10
72308;BME280;60257;42.638;23.376;2023-03-29T04:14:08;95047.84;;;-1.32;55.99
72308;BME280;60257;42.638;23.376;2023-03-29T04:16:34;95040.53;;;-1.37;55.80
72308;BME280;60257;42.638;23.376;2023-03-29T04:18:59;95045.09;;;-1.37;55.15
72308;BME280;60257;42.638;23.376;2023-03-29T04:21:25;95035.44;;;-1.33;55.14
72308;BME280;60257;42.638;23.376;2023-03-29T04:23:51;95046.72;;;-1.31;55.22
72308;BME280;60257;42.638;23.376;2023-03-29T04:26:16;95060.78;;;-1.24;54.66
72308;BME280;60257;42.638;23.376;2023-03-29T04:28:42;95056.16;;;-1.29;54.27
72308;BME280;60257;42.638;23.376;2023-03-29T04:31:10;95061.84;;;-1.25;54.06
72308;BME280;60257;42.638;23.376;2023-03-29T04:33:36;95058.06;;;-1.29;54.17
72308;BME280;60257;42.638;23.376;2023-03-29T04:36:02;95069.06;;;-1.31;53.84
72308;BME280;60257;42.638;23.376;2023-03-29T04:38:28;95058.03;;;-1.34;54.14
72308;BME280;60257;42.638;23.376;2023-03-29T04:40:54;95061.88;;;-1.15;53.96
72308;BME280;60257;42.638;23.376;2023-03-29T04:43:19;95071.56;;;-1.19;54.30
72308;BME280;60257;42.638;23.376;2023-03-29T04:45:47;95069.66;;;-1.19;53.87
72308;BME280;60257;42.638;23.376;2023-03-29T04:48:12;95066.69;;;-1.27;54.14
72308;BME280;60257;42.638;23.376;2023-03-29T04:50:38;95071.25;;;-1.23;54.44
72308;BME280;60257;42.638;23.376;2023-03-29T04:53:04;95090.94;;;-1.17;54.65
72308;BME280;60257;42.638;23.376;2023-03-29T04:55:30;95079.31;;;-1.23;54.34
72308;BME280;60257;42.638;23.376;2023-03-29T04:57:55;95084.19;;;-1.14;54.16
72308;BME280;60257;42.638;23.376;2023-03-29T05:00:21;95074.00;;;-1.07;54.52
72308;BME280;60257;42.638;23.376;2023-03-29T05:02:52;95103.09;;;-1.04;54.24
72308;BME280;60257;42.638;23.376;2023-03-29T05:05:18;95103.34;;;-1.06;54.23
72308;BME280;60257;42.638;23.376;2023-03-29T05:07:43;95093.94;;;-1.03;53.63
72308;BME280;60257;42.638;23.376;2023-03-29T05:10:10;95102.84;;;-1.03;53.72
72308;BME280;60257;42.638;23.376;2023-03-29T05:12:36;95103.94;;;-0.94;53.19
72308;BME280;60257;42.638;23.376;2023-03-29T05:15:03;95128.22;;;-0.79;52.39
72308;BME280;60257;42.638;23.376;2023-03-29T05:17:29;95100.44;;;-0.89;52.58
72308;BME280;60257;42.638;23.376;2023-03-29T05:19:56;95119.06;;;-0.77;52.60
72308;BME280;60257;42.638;23.376;2023-03-29T05:22:22;95109.88;;;-0.87;51.74
72308;BME280;60257;42.638;23.376;2023-03-29T05:24:47;95117.16;;;-0.77;51.14
72308;BME280;60257;42.638;23.376;2023-03-29T05:27:13;95125.75;;;-0.90;50.43
72308;BME280;60257;42.638;23.376;2023-03-29T05:29:39;95131.69;;;-0.88;50.61
72308;BME280;60257;42.638;23.376;2023-03-29T05:32:04;95139.53;;;-0.77;50.81
72308;BME280;60257;42.638;23.376;2023-03-29T05:34:31;95148.47;;;-0.61;50.95
72308;BME280;60257;42.638;23.376;2023-03-29T05:36:56;95141.44;;;-0.67;50.61
72308;BME280;60257;42.638;23.376;2023-03-29T05:39:23;95151.09;;;-0.76;51.31
72308;BME280;60257;42.638;23.376;2023-03-29T05:41:50;95137.13;;;-0.78;51.66
72308;BME280;60257;42.638;23.376;2023-03-29T05:44:15;95138.47;;;-0.70;52.17
72308;BME280;60257;42.638;23.376;2023-03-29T05:46:41;95141.69;;;-0.79;52.18
72308;BME280;60257;42.638;23.376;2023-03-29T05:49:06;95136.34;;;-0.53;51.81
72308;BME280;60257;42.638;23.376;2023-03-29T05:51:33;95150.66;;;-0.43;51.82
72308;BME280;60257;42.638;23.376;2023-03-29T05:54:00;95157.16;;;-0.13;51.67
72308;BME280;60257;42.638;23.376;2023-03-29T05:56:25;95159.38;;;0.15;50.99
72308;BME280;60257;42.638;23.376;2023-03-29T05:58:54;95151.25;;;0.41;49.92
72308;BME280;60257;42.638;23.376;2023-03-29T06:01:21;95159.31;;;0.61;49.11
72308;BME280;60257;42.638;23.376;2023-03-29T06:03:49;95159.03;;;0.72;48.96
72308;BME280;60257;42.638;23.376;2023-03-29T06:06:15;95133.09;;;0.71;48.80
72308;BME280;60257;42.638;23.376;2023-03-29T06:08:41;95159.34;;;0.46;48.73
72308;BME280;60257;42.638;23.376;2023-03-29T06:11:08;95149.31;;;0.66;49.18
72308;BME280;60257;42.638;23.376;2023-03-29T06:13:35;95159.53;;;0.80;48.90
72308;BME280;60257;42.638;23.376;2023-03-29T06:16:03;95160.34;;;0.80;48.79
72308;BME280;60257;42.638;23.376;2023-03-29T06:18:33;95159.28;;;0.71;49.52
72308;BME280;60257;42.638;23.376;2023-03-29T06:20:59;95158.38;;;1.16;47.96
72308;BME280;60257;42.638;23.376;2023-03-29T06:23:27;95161.69;;;0.88;47.96
72308;BME280;60257;42.638;23.376;2023-03-29T06:25:53;95168.72;;;0.78;47.94
72308;BME280;60257;42.638;23.376;2023-03-29T06:28:19;95152.22;;;0.95;47.88
72308;BME280;60257;42.638;23.376;2023-03-29T06:30:45;95160.25;;;1.21;47.30
72308;BME280;60257;42.638;23.376;2023-03-29T06:33:12;95167.19;;;1.32;47.31
72308;BME280;60257;42.638;23.376;2023-03-29T06:35:41;95179.88;;;1.41;46.96
72308;BME280;60257;42.638;23.376;2023-03-29T06:38:10;95181.88;;;1.75;46.24
72308;BME280;60257;42.638;23.376;2023-03-29T06:40:35;95175.69;;;1.69;45.64
72308;BME280;60257;42.638;23.376;2023-03-29T06:43:04;95193.41;;;1.36;46.16
72308;BME280;60257;42.638;23.376;2023-03-29T06:45:36;95198.22;;;1.49;46.04
72308;BME280;60257;42.638;23.376;2023-03-29T06:48:02;95196.88;;;1.47;45.78
72308;BME280;60257;42.638;23.376;2023-03-29T06:50:29;95191.56;;;1.22;46.36
72308;BME280;60257;42.638;23.376;2023-03-29T06:52:55;95197.97;;;1.41;46.65
72308;BME280;60257;42.638;23.376;2023-03-29T06:55:22;95195.03;;;1.37;45.64
72308;BME280;60257;42.638;23.376;2023-03-29T06:57:48;95176.69;;;1.29;45.44
72308;BME280;60257;42.638;23.376;2023-03-29T07:00:15;95192.06;;;1.39;45.44
72308;BME280;60257;42.638;23.376;2023-03-29T07:02:46;95186.25;;;0.91;46.22
72308;BME280;60257;42.638;23.376;2023-03-29T07:05:12;95189.72;;;1.02;46.07
72308;BME280;60257;42.638;23.376;2023-03-29T07:07:43;95180.00;;;1.16;45.71
72308;BME280;60257;42.638;23.376;2023-03-29T07:10:29;95164.19;;;1.43;45.82
72308;BME280;60257;42.638;23.376;2023-03-29T07:12:59;95189.47;;;1.68;45.04
72308;BME280;60257;42.638;23.376;2023-03-29T07:15:28;95170.97;;;1.90;44.91
72308;BME280;60257;42.638;23.376;2023-03-29T07:17:54;95181.25;;;1.88;44.65
72308;BME280;60257;42.638;23.376;2023-03-29T07:20:20;95178.53;;;1.88;44.40
72308;BME280;60257;42.638;23.376;2023-03-29T07:22:47;95178.13;;;2.10;43.81
72308;BME280;60257;42.638;23.376;2023-03-29T07:25:16;95180.06;;;2.04;43.94
72308;BME280;60257;42.638;23.376;2023-03-29T07:27:43;95186.06;;;2.01;42.94
72308;BME280;60257;42.638;23.376;2023-03-29T07:30:12;95172.47;;;2.06;42.75
72308;BME280;60257;42.638;23.376;2023-03-29T07:32:39;95152.78;;;2.01;43.19
72308;BME280;60257;42.638;23.376;2023-03-29T07:35:06;95175.81;;;1.93;43.94
72308;BME280;60257;42.638;23.376;2023-03-29T07:37:33;95182.16;;;2.12;42.71
72308;BME280;60257;42.638;23.376;2023-03-29T07:40:00;95161.50;;;2.26;42.64
72308;BME280;60257;42.638;23.376;2023-03-29T07:42:36;95161.16;;;2.33;41.69
72308;BME280;60257;42.638;23.376;2023-03-29T07:45:04;95170.47;;;2.22;42.37
72308;BME280;60257;42.638;23.376;2023-03-29T07:47:30;95170.09;;;2.00;42.49
72308;BME280;60257;42.638;23.376;2023-03-29T07:49:55;95175.13;;;2.16;42.03
72308;BME280;60257;42.638;23.376;2023-03-29T07:52:21;95166.31;;;2.01;42.39
72308;BME280;60257;42.638;23.376;2023-03-29T07:54:47;95163.63;;;1.96;43.07
72308;BME280;60257;42.638;23.376;2023-03-29T07:57:13;95175.50;;;2.00;42.84
72308;BME280;60257;42.638;23.376;2023-03-29T07:59:38;95152.69;;;1.72;42.41
72308;BME280;60257;42.638;23.376;2023-03-29T08:02:04;95153.56;;;1.62;42.11
72308;BME280;60257;42.638;23.376;2023-03-29T08:04:30;95161.28;;;1.79;42.57
72308;BME280;60257;42.638;23.376;2023-03-29T08:06:56;95134.19;;;1.89;42.88
72308;BME280;60257;42.638;23.376;2023-03-29T08:09:21;95151.53;;;1.83;42.37
72308;BME280;60257;42.638;23.376;2023-03-29T08:11:47;95145.31;;;1.82;42.18
72308;BME280;60257;42.638;23.376;2023-03-29T08:14:13;95159.03;;;1.96;41.97
72308;BME280;60257;42.638;23.376;2023-03-29T08:16:39;95141.06;;;2.10;42.03
72308;BME280;60257;42.638;23.376;2023-03-29T08:19:04;95142.72;;;2.06;41.22
72308;BME280;60257;42.638;23.376;2023-03-29T08:21:31;95136.81;;;1.99;40.92
72308;BME280;60257;42.638;23.376;2023-03-29T08:23:56;95140.84;;;2.07;40.79
72308;BME280;60257;42.638;23.376;2023-03-29T08:26:22;95116.88;;;1.90;40.90
72308;BME280;60257;42.638;23.376;2023-03-29T08:28:47;95124.22;;;2.18;41.16
72308;BME280;60257;42.638;23.376;2023-03-29T08:31:13;95128.69;;;2.33;40.59
72308;BME280;60257;42.638;23.376;2023-03-29T08:33:38;95134.91;;;2.39;40.71
72308;BME280;60257;42.638;23.376;2023-03-29T08:36:04;95144.31;;;2.46;40.60
72308;BME280;60257;42.638;23.376;2023-03-29T08:38:30;95119.16;;;2.41;40.00
72308;BME280;60257;42.638;23.376;2023-03-29T08:47:16;95127.78;;;2.48;38.40
72308;BME280;60257;42.638;23.376;2023-03-29T08:49:48;95122.41;;;2.43;38.23
72308;BME280;60257;42.638;23.376;2023-03-29T08:52:36;95132.81;;;2.25;38.35
72308;BME280;60257;42.638;23.376;2023-03-29T08:55:06;95138.16;;;2.36;39.08
72308;BME280;60257;42.638;23.376;2023-03-29T08:57:42;95120.84;;;2.37;37.66
72308;BME280;60257;42.638;23.376;2023-03-29T09:00:22;95145.38;;;2.45;35.55
72308;BME280;60257;42.638;23.376;2023-03-29T09:02:51;95111.28;;;2.44;37.40
72308;BME280;60257;42.638;23.376;2023-03-29T09:05:24;95104.31;;;2.38;37.08
72308;BME280;60257;42.638;23.376;2023-03-29T09:07:52;95116.34;;;2.80;37.21
72308;BME280;60257;42.638;23.376;2023-03-29T09:10:20;95122.56;;;2.80;35.58
72308;BME280;60257;42.638;23.376;2023-03-29T09:13:18;95119.69;;;2.95;36.36
72308;BME280;60257;42.638;23.376;2023-03-29T09:16:08;95101.19;;;3.02;35.48
72308;BME280;60257;42.638;23.376;2023-03-29T09:32:16;95085.44;;;3.28;34.24
72308;BME280;60257;42.638;23.376;2023-03-29T09:34:52;95093.59;;;3.47;34.46
72308;BME280;60257;42.638;23.376;2023-03-29T09:37:32;95096.16;;;3.57;33.97
72308;BME280;60257;42.638;23.376;2023-03-29T09:39:59;95101.34;;;3.72;34.17
72308;BME280;60257;42.638;23.376;2023-03-29T09:42:26;95096.75;;;3.73;34.70
72308;BME280;60257;42.638;23.376;2023-03-29T09:44:58;95090.38;;;3.64;34.11
72308;BME280;60257;42.638;23.376;2023-03-29T09:47:43;95082.59;;;3.76;35.08
72308;BME280;60257;42.638;23.376;2023-03-29T09:52:56;95081.13;;;4.02;34.25
72308;BME280;60257;42.638;23.376;2023-03-29T09:55:26;95102.59;;;3.80;34.49
72308;BME280;60257;42.638;23.376;2023-03-29T09:57:52;95100.66;;;3.85;33.19
72308;BME280;60257;42.638;23.376;2023-03-29T10:00:19;95092.13;;;3.92;32.43
72308;BME280;60257;42.638;23.376;2023-03-29T10:02:50;95098.00;;;3.99;30.75
72308;BME280;60257;42.638;23.376;2023-03-29T10:05:16;95089.75;;;4.04;30.68
72308;BME280;60257;42.638;23.376;2023-03-29T10:07:53;95086.97;;;4.09;30.17
72308;BME280;60257;42.638;23.376;2023-03-29T10:10:33;95073.91;;;4.11;30.24
72308;BME280;60257;42.638;23.376;2023-03-29T10:13:03;95106.28;;;4.08;30.12
72308;BME280;60257;42.638;23.376;2023-03-29T10:15:30;95061.13;;;4.12;29.90
72308;BME280;60257;42.638;23.376;2023-03-29T10:18:05;95089.13;;;4.26;30.41
72308;BME280;60257;42.638;23.376;2023-03-29T10:20:34;95074.16;;;4.29;29.36
72308;BME280;60257;42.638;23.376;2023-03-29T10:23:01;95089.88;;;4.32;30.13
72308;BME280;60257;42.638;23.376;2023-03-29T10:25:31;95015.38;;;4.51;29.50
72308;BME280;60257;42.638;23.376;2023-03-29T10:28:04;95081.84;;;4.40;29.58
72308;BME280;60257;42.638;23.376;2023-03-29T10:30:34;95070.47;;;4.38;28.45
72308;BME280;60257;42.638;23.376;2023-03-29T10:33:01;95089.38;;;4.43;29.25
72308;BME280;60257;42.638;23.376;2023-03-29T10:35:33;95078.94;;;4.50;29.19
72308;BME280;60257;42.638;23.376;2023-03-29T10:38:03;95065.75;;;4.44;28.20
72308;BME280;60257;42.638;23.376;2023-03-29T10:40:41;95061.34;;;4.48;28.57
72308;BME280;60257;42.638;23.376;2023-03-29T10:45:47;95082.63;;;4.87;28.22
72308;BME280;60257;42.638;23.376;2023-03-29T10:48:26;95073.06;;;4.76;28.77
72308;BME280;60257;42.638;23.376;2023-03-29T10:50:52;95049.47;;;4.57;27.84
72308;BME280;60257;42.638;23.376;2023-03-29T10:58:35;95051.03;;;4.91;26.30
72308;BME280;60257;42.638;23.376;2023-03-29T11:01:03;95031.91;;;4.82;26.36
72308;BME280;60257;42.638;23.376;2023-03-29T11:03:48;95045.41;;;4.87;27.56
72308;BME280;60257;42.638;23.376;2023-03-29T11:06:27;95055.25;;;4.97;28.82
72308;BME280;60257;42.638;23.376;2023-03-29T11:12:00;95034.91;;;5.08;27.01
72308;BME280;60257;42.638;23.376;2023-03-29T11:14:44;95038.94;;;5.24;26.51
72308;BME280;60257;42.638;23.376;2023-03-29T11:23:17;95032.47;;;5.34;28.11
72308;BME280;60257;42.638;23.376;2023-03-29T11:31:08;95039.88;;;5.42;27.78
72308;BME280;60257;42.638;23.376;2023-03-29T11:33:45;95025.41;;;5.47;26.98
72308;BME280;60257;42.638;23.376;2023-03-29T11:36:20;95027.38;;;5.55;27.78
72308;BME280;60257;42.638;23.376;2023-03-29T11:41:51;95026.91;;;5.75;27.13
72308;BME280;60257;42.638;23.376;2023-03-29T11:44:27;95024.63;;;5.68;26.69
72308;BME280;60257;42.638;23.376;2023-03-29T11:49:28;95024.03;;;5.71;27.21
72308;BME280;60257;42.638;23.376;2023-03-29T11:52:17;95024.16;;;5.89;27.38
72308;BME280;60257;42.638;23.376;2023-03-29T11:54:59;95013.38;;;5.84;26.98
72308;BME280;60257;42.638;23.376;2023-03-29T11:57:32;95009.50;;;5.98;26.61
72308;BME280;60257;42.638;23.376;2023-03-29T12:02:34;95014.91;;;5.90;25.61
72308;BME280;60257;42.638;23.376;2023-03-29T12:05:10;95014.66;;;6.00;26.61
72308;BME280;60257;42.638;23.376;2023-03-29T12:07:46;95003.44;;;6.24;27.71
72308;BME280;60257;42.638;23.376;2023-03-29T12:10:26;95005.97;;;6.42;27.05
72308;BME280;60257;42.638;23.376;2023-03-29T12:13:11;95019.53;;;6.34;27.10
72308;BME280;60257;42.638;23.376;2023-03-29T12:15:52;95014.97;;;6.51;26.79
72308;BME280;60257;42.638;23.376;2023-03-29T12:18:29;94996.34;;;6.45;26.77
72308;BME280;60257;42.638;23.376;2023-03-29T12:21:02;95013.13;;;6.69;26.90
72308;BME280;60257;42.638;23.376;2023-03-29T12:23:30;95023.34;;;6.55;24.96
72308;BME280;60257;42.638;23.376;2023-03-29T12:26:04;95012.16;;;6.34;24.57
72308;BME280;60257;42.638;23.376;2023-03-29T12:37:05;95008.00;;;6.37;24.71
72308;BME280;60257;42.638;23.376;2023-03-29T12:39:36;95006.75;;;6.43;25.45
72308;BME280;60257;42.638;23.376;2023-03-29T12:42:21;95019.59;;;6.42;25.18
72308;BME280;60257;42.638;23.376;2023-03-29T12:44:58;95004.31;;;6.33;24.83
72308;BME280;60257;42.638;23.376;2023-03-29T12:47:33;94993.09;;;6.34;24.25
72308;BME280;60257;42.638;23.376;2023-03-29T12:50:01;94998.91;;;6.41;24.34
72308;BME280;60257;42.638;23.376;2023-03-29T12:52:34;95013.25;;;6.55;25.15
72308;BME280;60257;42.638;23.376;2023-03-29T12:55:03;95012.69;;;6.45;25.87
72308;BME280;60257;42.638;23.376;2023-03-29T12:57:40;95004.41;;;6.58;26.37
72308;BME280;60257;42.638;23.376;2023-03-29T13:00:54;95006.22;;;6.63;26.57
72308;BME280;60257;42.638;23.376;2023-03-29T13:03:28;95004.69;;;6.79;26.39
72308;BME280;60257;42.638;23.376;2023-03-29T13:06:01;95005.72;;;6.61;25.84
72308;BME280;60257;42.638;23.376;2023-03-29T13:08:38;95018.91;;;6.68;26.88
72308;BME280;60257;42.638;23.376;2023-03-29T13:11:05;95039.13;;;6.75;26.29
72308;BME280;60257;42.638;23.376;2023-03-29T13:13:34;95004.41;;;6.58;26.87
72308;BME280;60257;42.638;23.376;2023-03-29T13:19:06;95031.41;;;6.69;26.20
72308;BME280;60257;42.638;23.376;2023-03-29T13:24:51;95014.59;;;6.75;26.02
72308;BME280;60257;42.638;23.376;2023-03-29T13:43:28;95010.13;;;6.40;26.84
72308;BME280;60257;42.638;23.376;2023-03-29T13:48:27;95014.16;;;6.42;26.35
72308;BME280;60257;42.638;23.376;2023-03-29T13:50:56;94998.09;;;6.41;26.80
72308;BME280;60257;42.638;23.376;2023-03-29T13:55:51;95008.44;;;6.30;26.72
72308;BME280;60257;42.638;23.376;2023-03-29T14:01:00;95030.41;;;6.56;25.98
72308;BME280;60257;42.638;23.376;2023-03-29T14:03:26;95017.03;;;6.46;25.51
72308;BME280;60257;42.638;23.376;2023-03-29T14:06:00;95015.72;;;6.43;25.50
72308;BME280;60257;42.638;23.376;2023-03-29T14:08:32;95012.47;;;6.64;25.47
72308;BME280;60257;42.638;23.376;2023-03-29T14:11:02;95012.84;;;6.71;25.69
72308;BME280;60257;42.638;23.376;2023-03-29T14:13:29;95021.28;;;6.61;25.89
72308;BME280;60257;42.638;23.376;2023-03-29T14:16:05;95012.47;;;6.64;25.46
72308;BME280;60257;42.638;23.376;2023-03-29T14:18:37;95028.59;;;6.51;24.31
72308;BME280;60257;42.638;23.376;2023-03-29T14:23:32;95006.13;;;6.46;24.82
72308;BME280;60257;42.638;23.376;2023-03-29T14:26:08;95009.22;;;6.53;25.11
72308;BME280;60257;42.638;23.376;2023-03-29T14:28:43;95010.25;;;6.66;24.19
72308;BME280;60257;42.638;23.376;2023-03-29T14:31:16;95006.53;;;6.62;24.53
72308;BME280;60257;42.638;23.376;2023-03-29T14:33:42;95016.38;;;6.71;24.19
72308;BME280;60257;42.638;23.376;2023-03-29T14:36:12;95028.94;;;6.58;24.35
72308;BME280;60257;42.638;23.376;2023-03-29T14:38:46;95026.41;;;6.62;24.61
72308;BME280;60257;42.638;23.376;2023-03-29T14:41:13;95027.13;;;6.76;25.16
72308;BME280;60257;42.638;23.376;2023-03-29T14:43:39;95028.34;;;6.62;25.03
72308;BME280;60257;42.638;23.376;2023-03-29T14:46:05;95021.91;;;6.57;25.54
72308;BME280;60257;42.638;23.376;2023-03-29T14:48:31;95015.72;;;6.74;25.08
72308;BME280;60257;42.638;23.376;2023-03-29T14:50:58;95022.94;;;6.70;25.36
72308;BME280;60257;42.638;23.376;2023-03-29T14:53:25;95021.09;;;6.57;25.31
72308;BME280;60257;42.638;23.376;2023-03-29T14:55:54;95023.19;;;6.60;25.39
72308;BME280;60257;42.638;23.376;2023-03-29T14:58:30;95014.16;;;6.42;24.93
72308;BME280;60257;42.638;23.376;2023-03-29T15:00:56;95021.97;;;6.44;25.40